createdAt,value
2023-01-08T00:02:22.028Z,92.90
2023-01-08T00:05:08.313Z,92.50
2023-01-08T00:07:54.478Z,91.70
2023-01-08T00:10:40.645Z,91.50
2023-01-08T00:13:26.728Z,91.60
2023-01-08T00:16:14.318Z,91.10
2023-01-08T00:19:00.167Z,92.50
2023-01-08T00:21:46.242Z,91.90
2023-01-08T00:24:32.404Z,91.70
2023-01-08T00:27:18.470Z,91.70
2023-01-08T00:30:04.755Z,92.60
2023-01-08T00:32:50.683Z,92.70
2023-01-08T00:35:40.440Z,92.50
2023-01-08T00:38:27.046Z,92.40
2023-01-08T00:41:13.381Z,91.70
2023-01-08T00:43:59.123Z,90.90
2023-01-08T00:46:45.244Z,90.60
2023-01-08T00:49:31.465Z,90.70
2023-01-08T00:52:17.315Z,90.60
2023-01-08T00:55:03.624Z,91.10
2023-01-08T00:57:49.337Z,91.30
2023-01-08T01:00:35.471Z,91.00
2023-01-08T01:03:21.587Z,91.30
2023-01-08T01:06:07.732Z,91.30
2023-01-08T01:08:53.485Z,91.20
2023-01-08T01:11:39.458Z,91.10
2023-01-08T01:14:25.583Z,91.10
2023-01-08T01:17:12.621Z,90.80
2023-01-08T01:19:58.862Z,91.30
2023-01-08T01:22:44.772Z,91.50
2023-01-08T01:25:30.729Z,91.80
2023-01-08T01:28:16.905Z,91.70
2023-01-08T01:31:03.855Z,92.10
2023-01-08T01:33:50.274Z,92.10
2023-01-08T01:36:37.278Z,92.10
2023-01-08T01:39:23.240Z,92.20
2023-01-08T01:42:37.386Z,92.10
2023-01-08T01:45:24.605Z,91.40
2023-01-08T01:48:11.864Z,92.20
2023-01-08T01:50:57.807Z,92.20
2023-01-08T01:53:43.699Z,92.30
2023-01-08T01:56:29.625Z,92.20
2023-01-08T01:59:16.017Z,92.30
2023-01-08T02:02:02.118Z,92.30
2023-01-08T02:04:48.350Z,92.40
2023-01-08T02:07:37.386Z,91.70
2023-01-08T02:10:29.780Z,90.90
2023-01-08T02:13:20.590Z,91.10
2023-01-08T02:16:12.616Z,91.30
2023-01-08T02:19:02.962Z,91.90
2023-01-08T02:22:07.519Z,92.30
2023-01-08T02:24:56.057Z,92.50
2023-01-08T02:27:44.398Z,91.70
2023-01-08T02:30:30.412Z,91.70
2023-01-08T02:33:16.196Z,91.60
2023-01-08T02:36:14.549Z,91.20
2023-01-08T02:39:06.755Z,91.50
2023-01-08T02:42:08.171Z,91.60
2023-01-08T02:44:56.782Z,91.70
2023-01-08T02:47:45.467Z,91.60
2023-01-08T02:50:34.374Z,91.80
2023-01-08T02:53:23.126Z,91.70
2023-01-08T02:56:14.618Z,91.60
2023-01-08T02:59:01.885Z,91.10
2023-01-08T03:01:48.370Z,90.90
2023-01-08T03:04:40.130Z,91.30
2023-01-08T03:07:26.047Z,91.60
2023-01-08T03:10:12.599Z,91.70
2023-01-08T03:13:01.518Z,91.60
2023-01-08T03:15:49.680Z,90.40
2023-01-08T03:18:37.897Z,90.80
2023-01-08T03:21:24.105Z,91.30
2023-01-08T03:24:12.268Z,91.60
2023-01-08T03:26:59.581Z,91.80
2023-01-08T03:29:46.825Z,92.10
2023-01-08T03:32:33.689Z,91.60
2023-01-08T03:35:22.462Z,91.40
2023-01-08T03:38:12.583Z,90.90
2023-01-08T03:41:01.755Z,91.80
2023-01-08T03:43:47.731Z,91.60
2023-01-08T03:46:35.780Z,91.70
2023-01-08T03:49:22.849Z,91.70
2023-01-08T03:52:08.825Z,90.50
2023-01-08T03:54:54.879Z,90.90
2023-01-08T03:57:40.782Z,91.00
2023-01-08T04:00:26.832Z,90.70
2023-01-08T04:03:12.758Z,91.30
2023-01-08T04:06:01.753Z,90.90
2023-01-08T04:08:48.093Z,91.40
2023-01-08T04:11:34.251Z,91.50
2023-01-08T04:14:20.130Z,91.90
2023-01-08T04:17:06.086Z,91.70
2023-01-08T04:19:52.071Z,91.60
2023-01-08T04:22:38.052Z,91.50
2023-01-08T04:25:24.119Z,91.60
2023-01-08T04:28:09.812Z,91.70
2023-01-08T04:30:55.969Z,91.80
2023-01-08T04:33:41.837Z,92.10
2023-01-08T04:36:27.930Z,92.00
2023-01-08T04:39:13.874Z,92.20
2023-01-08T04:41:59.898Z,92.40
2023-01-08T04:44:45.727Z,92.50
2023-01-08T04:47:31.734Z,91.90
2023-01-08T04:50:17.722Z,91.90
2023-01-08T04:53:03.905Z,91.90
2023-01-08T04:55:49.972Z,91.50
2023-01-08T04:58:36.526Z,91.60
2023-01-08T05:01:23.840Z,91.90
2023-01-08T05:04:10.806Z,92.20
2023-01-08T05:06:56.457Z,92.00
2023-01-08T05:09:42.507Z,91.90
2023-01-08T05:12:28.413Z,91.60
2023-01-08T05:15:14.462Z,91.40
2023-01-08T05:18:01.642Z,92.00
2023-01-08T05:20:47.242Z,91.90
2023-01-08T05:23:33.576Z,91.60
2023-01-08T05:26:19.520Z,91.70
2023-01-08T05:29:05.396Z,91.70
2023-01-08T05:31:51.446Z,91.70
2023-01-08T05:34:37.393Z,91.90
2023-01-08T05:37:23.637Z,92.20
2023-01-08T05:40:10.073Z,91.40
2023-01-08T05:42:56.119Z,90.90
2023-01-08T05:45:42.287Z,91.10
2023-01-08T05:48:29.157Z,91.40
2023-01-08T05:51:15.108Z,92.10
2023-01-08T05:54:01.251Z,92.20
2023-01-08T05:56:47.138Z,92.20
2023-01-08T05:59:33.165Z,92.30
2023-01-08T06:02:19.314Z,92.40
2023-01-08T06:05:05.573Z,92.10
2023-01-08T06:07:51.319Z,92.00
2023-01-08T06:10:38.040Z,92.00
2023-01-08T06:13:24.214Z,92.10
2023-01-08T06:16:10.776Z,92.20
2023-01-08T06:18:56.854Z,92.00
2023-01-08T06:21:42.811Z,91.90
2023-01-08T06:24:28.839Z,92.00
2023-01-08T06:27:14.724Z,92.00
2023-01-08T06:30:00.954Z,91.80
2023-01-08T06:32:47.034Z,91.40
2023-01-08T06:35:33.003Z,91.60
2023-01-08T06:38:19.430Z,91.80
2023-01-08T06:41:06.975Z,91.90
2023-01-08T06:43:52.674Z,92.00
2023-01-08T06:46:40.436Z,91.90
2023-01-08T06:49:26.692Z,92.00
2023-01-08T06:52:12.620Z,92.00
2023-01-08T06:54:58.541Z,92.10
2023-01-08T06:57:44.527Z,91.90
2023-01-08T07:00:30.463Z,91.80
2023-01-08T07:03:16.981Z,91.70
2023-01-08T07:06:03.153Z,91.90
2023-01-08T07:08:49.144Z,92.10
2023-01-08T07:11:35.000Z,92.10
2023-01-08T07:14:20.967Z,91.60
2023-01-08T07:17:07.420Z,92.10
2023-01-08T07:19:53.683Z,91.90
2023-01-08T07:22:39.671Z,92.00
2023-01-08T07:25:26.037Z,92.50
2023-01-08T07:28:13.061Z,92.90
2023-01-08T07:31:02.560Z,93.00
2023-01-08T07:33:48.661Z,93.00
2023-01-08T07:36:34.913Z,92.70
2023-01-08T07:39:20.981Z,92.50
2023-01-08T07:42:06.970Z,92.00
2023-01-08T07:44:53.102Z,92.00
2023-01-08T07:47:38.778Z,91.80
2023-01-08T07:50:24.856Z,91.70
2023-01-08T07:53:11.552Z,91.80
2023-01-08T07:56:01.030Z,91.60
2023-01-08T07:58:46.855Z,91.60
2023-01-08T08:01:32.994Z,91.60
2023-01-08T08:04:19.296Z,91.60
2023-01-08T08:07:05.609Z,91.50
2023-01-08T08:09:51.629Z,91.00
2023-01-08T08:12:37.733Z,90.80
2023-01-08T08:15:23.655Z,90.80
2023-01-08T08:18:10.168Z,91.40
2023-01-08T08:20:56.427Z,91.70
2023-01-08T08:23:42.223Z,91.50
2023-01-08T08:26:28.254Z,91.30
2023-01-08T08:29:14.339Z,91.50
2023-01-08T08:32:00.497Z,91.40
2023-01-08T08:34:46.429Z,91.40
2023-01-08T08:37:32.457Z,91.50
2023-01-08T08:40:18.422Z,91.00
2023-01-08T08:43:05.363Z,90.80
2023-01-08T08:45:51.371Z,90.60
2023-01-08T08:48:37.311Z,90.60
2023-01-08T08:51:23.259Z,90.40
2023-01-08T08:54:10.545Z,90.10
2023-01-08T08:56:56.346Z,90.20
2023-01-08T08:59:43.298Z,90.30
2023-01-08T09:02:29.592Z,90.70
2023-01-08T09:05:15.661Z,90.30
2023-01-08T09:08:01.664Z,90.20
2023-01-08T09:10:47.673Z,90.30
2023-01-08T09:13:33.764Z,89.90
2023-01-08T09:16:20.014Z,90.30
2023-01-08T09:19:07.063Z,89.90
2023-01-08T09:21:53.225Z,89.00
2023-01-08T09:24:39.318Z,87.50
2023-01-08T09:27:25.290Z,87.50
2023-01-08T09:30:11.725Z,88.60
2023-01-08T09:33:01.324Z,88.90
2023-01-08T09:35:48.151Z,88.60
2023-01-08T09:38:34.092Z,88.80
2023-01-08T09:41:26.745Z,89.10
2023-01-08T09:44:18.447Z,89.80
2023-01-08T09:47:06.094Z,89.40
2023-01-08T09:49:53.062Z,89.30
2023-01-08T09:52:39.275Z,89.10
2023-01-08T09:55:25.786Z,86.50
2023-01-08T09:58:31.086Z,86.00
2023-01-08T10:01:20.937Z,83.30
2023-01-08T10:04:13.214Z,81.50
2023-01-08T10:07:14.301Z,78.60
2023-01-08T10:10:00.451Z,78.30
2023-01-08T10:12:46.869Z,76.50
2023-01-08T10:15:32.553Z,74.60
2023-01-08T10:18:19.666Z,75.10
2023-01-08T10:21:05.615Z,74.10
2023-01-08T10:23:52.592Z,74.40
2023-01-08T10:26:38.828Z,74.30
2023-01-08T10:29:25.242Z,72.20
2023-01-08T10:32:19.436Z,70.90
2023-01-08T10:35:07.782Z,69.80
2023-01-08T10:37:53.854Z,68.50
2023-01-08T10:40:47.895Z,71.10
2023-01-08T10:43:36.791Z,69.10
2023-01-08T10:46:28.788Z,69.00
2023-01-08T10:49:17.449Z,70.20
2023-01-08T10:52:03.478Z,68.90
2023-01-08T10:54:49.560Z,68.60
2023-01-08T10:57:35.472Z,71.00
2023-01-08T11:00:25.495Z,72.10
2023-01-08T11:03:22.264Z,73.50
2023-01-08T11:06:12.677Z,73.30
2023-01-08T11:08:59.975Z,75.20
2023-01-08T11:11:45.926Z,74.50
2023-01-08T11:14:35.206Z,74.80
2023-01-08T11:17:24.341Z,74.10
2023-01-08T11:20:19.894Z,74.40
2023-01-08T11:23:06.830Z,75.00
2023-01-08T11:26:00.035Z,76.10
2023-01-08T11:29:04.575Z,77.50
2023-01-08T11:32:09.232Z,74.80
2023-01-08T11:35:04.172Z,75.10
2023-01-08T11:37:54.556Z,74.40
2023-01-08T11:40:44.529Z,73.20
2023-01-08T11:43:36.742Z,72.10
2023-01-08T11:46:29.005Z,73.00
2023-01-08T11:49:34.330Z,71.90
2023-01-08T11:52:41.363Z,70.00
2023-01-08T11:55:39.253Z,70.40
2023-01-08T11:58:44.143Z,69.50
2023-01-08T12:01:42.558Z,70.10
2023-01-08T12:04:37.471Z,70.70
2023-01-08T12:07:25.842Z,70.80
2023-01-08T12:10:22.112Z,73.40
2023-01-08T12:13:20.418Z,71.70
2023-01-08T12:16:19.144Z,73.10
2023-01-08T12:19:20.605Z,72.90
2023-01-08T12:22:15.813Z,73.10
2023-01-08T12:25:20.752Z,73.40
2023-01-08T12:28:15.844Z,73.10
2023-01-08T12:31:20.953Z,73.00
2023-01-08T12:34:12.297Z,73.00
2023-01-08T12:37:03.563Z,72.30
2023-01-08T12:40:16.088Z,73.20
2023-01-08T12:43:05.883Z,73.80
2023-01-08T12:45:53.421Z,73.30
2023-01-08T12:48:39.722Z,71.70
2023-01-08T12:51:31.868Z,72.50
2023-01-08T12:54:30.145Z,72.90
2023-01-08T12:57:25.222Z,72.90
2023-01-08T13:00:17.288Z,72.40
2023-01-08T13:03:05.174Z,72.70
2023-01-08T13:05:51.247Z,72.10
2023-01-08T13:08:38.252Z,72.80
2023-01-08T13:11:25.271Z,73.50
2023-01-08T13:14:12.240Z,72.90
2023-01-08T13:17:02.763Z,74.40
2023-01-08T13:19:55.467Z,74.60
2023-01-08T13:22:41.738Z,77.50
2023-01-08T13:25:29.497Z,76.50
2023-01-08T13:28:24.737Z,76.90
2023-01-08T13:31:27.239Z,75.00
2023-01-08T13:34:40.643Z,73.80
2023-01-08T13:37:27.788Z,74.10
2023-01-08T13:40:32.960Z,73.50
2023-01-08T13:43:36.143Z,75.50
2023-01-08T13:46:21.855Z,78.10
2023-01-08T13:49:09.715Z,76.30
2023-01-08T13:51:55.611Z,77.90
2023-01-08T13:54:43.193Z,78.30
2023-01-08T13:57:34.108Z,78.40
2023-01-08T14:00:30.964Z,77.90
2023-01-08T14:03:23.956Z,78.20
2023-01-08T14:06:23.512Z,76.30
2023-01-08T14:09:18.351Z,74.90
2023-01-08T14:12:04.385Z,75.90
2023-01-08T14:14:54.538Z,76.50
2023-01-08T14:17:43.431Z,77.20
2023-01-08T14:20:35.729Z,77.10
2023-01-08T14:23:27.418Z,77.20
2023-01-08T14:26:33.122Z,76.90
2023-01-08T14:29:23.545Z,79.00
2023-01-08T14:32:15.998Z,79.40
2023-01-08T14:35:03.938Z,79.90
2023-01-08T14:37:49.841Z,80.10
2023-01-08T14:40:38.071Z,79.40
2023-01-08T14:43:23.990Z,79.80
2023-01-08T14:46:18.457Z,79.90
2023-01-08T14:49:04.276Z,79.40
2023-01-08T14:51:52.353Z,77.50
2023-01-08T14:54:38.761Z,77.00
2023-01-08T14:57:25.636Z,76.70
2023-01-08T15:00:16.062Z,76.40
2023-01-08T15:03:02.136Z,76.40
2023-01-08T15:05:48.930Z,76.10
2023-01-08T15:08:39.131Z,75.50
2023-01-08T15:11:26.390Z,75.50
2023-01-08T15:14:13.302Z,76.40
2023-01-08T15:17:05.120Z,76.40
2023-01-08T15:19:52.858Z,76.70
2023-01-08T15:22:38.816Z,77.40
2023-01-08T15:25:26.737Z,78.70
2023-01-08T15:28:14.537Z,79.20
2023-01-08T15:31:00.370Z,79.70
2023-01-08T15:33:46.361Z,80.50
2023-01-08T15:36:32.498Z,80.80
2023-01-08T15:39:18.502Z,80.70
2023-01-08T15:42:52.333Z,80.80
2023-01-08T15:45:39.528Z,80.90
2023-01-08T15:48:25.213Z,82.30
2023-01-08T15:51:11.445Z,82.60
2023-01-08T15:53:57.384Z,82.00
2023-01-08T15:56:43.450Z,82.00
2023-01-08T15:59:31.545Z,81.20
2023-01-08T16:02:17.846Z,81.30
2023-01-08T16:05:04.216Z,82.30
2023-01-08T16:07:50.028Z,82.20
2023-01-08T16:10:36.009Z,82.00
2023-01-08T16:13:21.875Z,82.10
2023-01-08T16:16:11.527Z,82.10
2023-01-08T16:18:58.866Z,82.60
2023-01-08T16:21:47.654Z,82.30
2023-01-08T16:24:34.702Z,82.10
2023-01-08T16:27:20.817Z,82.40
2023-01-08T16:30:08.393Z,82.60
2023-01-08T16:32:54.238Z,83.90
2023-01-08T16:35:40.247Z,83.40
2023-01-08T16:38:26.478Z,83.70
2023-01-08T16:41:12.181Z,83.50
2023-01-08T16:43:58.243Z,83.40
2023-01-08T16:46:46.749Z,83.50
2023-01-08T16:49:33.561Z,83.50
2023-01-08T16:52:19.595Z,83.70
2023-01-08T16:55:06.519Z,83.90
2023-01-08T16:57:54.570Z,84.10
2023-01-08T17:00:41.290Z,84.20
2023-01-08T17:03:27.235Z,84.10
2023-01-08T17:06:14.223Z,83.80
2023-01-08T17:09:00.440Z,83.40
2023-01-08T17:11:47.749Z,83.10
2023-01-08T17:14:35.456Z,83.00
2023-01-08T17:17:21.262Z,83.10
2023-01-08T17:20:07.895Z,83.20
2023-01-08T17:22:54.154Z,83.20
2023-01-08T17:25:40.695Z,83.30
2023-01-08T17:28:28.598Z,83.60
2023-01-08T17:31:15.760Z,83.70
2023-01-08T17:34:01.775Z,83.80
2023-01-08T17:36:47.916Z,84.00
2023-01-08T17:39:34.060Z,84.10
2023-01-08T17:42:27.526Z,84.20
2023-01-08T17:45:13.443Z,84.30
2023-01-08T17:47:59.543Z,84.40
2023-01-08T17:50:45.527Z,84.40
2023-01-08T17:53:31.539Z,84.40
2023-01-08T17:56:17.563Z,84.40
2023-01-08T17:59:03.879Z,84.50
2023-01-08T18:01:51.443Z,84.80
2023-01-08T18:04:37.623Z,84.40
2023-01-08T18:07:23.886Z,84.20
2023-01-08T18:10:10.217Z,84.50
2023-01-08T18:12:56.586Z,84.40
2023-01-08T18:15:42.612Z,84.50
2023-01-08T18:18:28.918Z,84.40
2023-01-08T18:21:14.610Z,84.50
2023-01-08T18:24:01.197Z,84.30
2023-01-08T18:26:48.544Z,84.50
2023-01-08T18:29:34.702Z,84.80
2023-01-08T18:32:26.000Z,84.90
2023-01-08T18:35:12.843Z,85.50
2023-01-08T18:37:59.307Z,86.00
2023-01-08T18:40:45.767Z,85.80
2023-01-08T18:43:32.617Z,85.40
2023-01-08T18:46:19.408Z,85.30
2023-01-08T18:49:05.651Z,85.40
2023-01-08T18:51:51.653Z,85.30
2023-01-08T18:54:37.698Z,85.30
2023-01-08T18:57:24.196Z,85.50
2023-01-08T19:00:10.982Z,85.80
2023-01-08T19:02:57.329Z,86.30
2023-01-08T19:05:44.077Z,86.40
2023-01-08T19:08:30.060Z,86.50
2023-01-08T19:11:16.070Z,86.40
2023-01-08T19:14:02.187Z,86.60
2023-01-08T19:16:51.350Z,86.80
2023-01-08T19:19:37.271Z,87.20
2023-01-08T19:22:26.564Z,87.00
2023-01-08T19:25:14.929Z,87.30
2023-01-08T19:28:01.005Z,87.30
2023-01-08T19:30:53.655Z,87.30
2023-01-08T19:33:39.987Z,87.30
2023-01-08T19:36:26.104Z,87.20
2023-01-08T19:39:12.109Z,87.30
2023-01-08T19:42:27.498Z,87.70
2023-01-08T19:45:13.947Z,87.70
2023-01-08T19:47:59.974Z,87.70
2023-01-08T19:50:47.039Z,88.00
2023-01-08T19:53:33.227Z,87.90
2023-01-08T19:56:19.449Z,88.10
2023-01-08T19:59:05.239Z,88.40
2023-01-08T20:01:51.469Z,88.40
2023-01-08T20:04:43.880Z,88.80
2023-01-08T20:07:29.663Z,89.60
2023-01-08T20:10:15.861Z,89.60
2023-01-08T20:13:01.638Z,89.60
2023-01-08T20:15:55.147Z,89.70
2023-01-08T20:18:41.175Z,89.90
2023-01-08T20:21:27.615Z,90.00
2023-01-08T20:24:14.798Z,89.90
2023-01-08T20:27:00.835Z,90.10
2023-01-08T20:29:46.687Z,90.20
2023-01-08T20:32:32.687Z,90.30
2023-01-08T20:35:18.717Z,90.30
2023-01-08T20:38:04.921Z,90.30
2023-01-08T20:40:51.444Z,90.40
2023-01-08T20:43:38.160Z,90.40
2023-01-08T20:46:28.087Z,90.40
2023-01-08T20:49:16.652Z,90.50
2023-01-08T20:52:04.555Z,90.30
2023-01-08T20:54:50.732Z,90.40
2023-01-08T20:57:36.835Z,90.50
2023-01-08T21:00:24.898Z,90.40
2023-01-08T21:03:11.033Z,90.60
2023-01-08T21:05:56.742Z,90.70
2023-01-08T21:08:43.478Z,90.50
2023-01-08T21:11:29.517Z,90.60
2023-01-08T21:14:15.361Z,90.40
2023-01-08T21:17:01.385Z,90.40
2023-01-08T21:19:47.523Z,90.30
2023-01-08T21:22:33.539Z,90.40
2023-01-08T21:25:19.532Z,90.50
2023-01-08T21:28:05.772Z,90.50
2023-01-08T21:30:52.144Z,90.50
2023-01-08T21:33:38.361Z,90.50
2023-01-08T21:36:26.292Z,90.50
2023-01-08T21:39:12.106Z,90.40
2023-01-08T21:42:16.803Z,90.20
2023-01-08T21:45:41.347Z,90.40
2023-01-08T21:48:27.703Z,90.70
2023-01-08T21:51:32.180Z,90.80
2023-01-08T21:54:18.403Z,90.90
2023-01-08T21:57:04.396Z,90.70
2023-01-08T21:59:51.286Z,90.90
2023-01-08T22:02:37.108Z,91.10
2023-01-08T22:05:23.005Z,91.30
2023-01-08T22:08:09.587Z,91.40
2023-01-08T22:10:55.463Z,91.30
2023-01-08T22:13:41.301Z,91.20
2023-01-08T22:16:27.449Z,91.20
2023-01-08T22:19:13.315Z,91.00
2023-01-08T22:21:59.579Z,91.00
2023-01-08T22:24:45.348Z,91.10
2023-01-08T22:27:31.542Z,91.30
2023-01-08T22:30:17.651Z,91.40
2023-01-08T22:33:03.420Z,91.40
2023-01-08T22:35:49.601Z,91.40
2023-01-08T22:38:36.167Z,91.50
2023-01-08T22:41:22.762Z,91.80
2023-01-08T22:44:10.775Z,92.30
2023-01-08T22:46:59.039Z,91.90
2023-01-08T22:49:45.085Z,92.10
2023-01-08T22:52:31.133Z,91.90
2023-01-08T22:55:17.946Z,91.90
2023-01-08T22:58:03.763Z,91.80
2023-01-08T23:00:49.901Z,91.70
2023-01-08T23:03:36.006Z,91.60
2023-01-08T23:06:22.496Z,91.90
2023-01-08T23:09:08.396Z,92.10
2023-01-08T23:11:54.497Z,91.90
2023-01-08T23:14:41.297Z,91.90
2023-01-08T23:17:27.345Z,91.90
2023-01-08T23:20:13.881Z,91.70
2023-01-08T23:22:59.915Z,91.70
2023-01-08T23:25:45.854Z,92.20
2023-01-08T23:28:31.862Z,92.30
2023-01-08T23:31:19.306Z,92.60
2023-01-08T23:34:05.962Z,92.70
2023-01-08T23:36:51.792Z,92.60
2023-01-08T23:39:37.703Z,92.30
2023-01-08T23:42:23.673Z,92.30
2023-01-08T23:45:11.258Z,92.60
2023-01-08T23:47:57.275Z,92.80
2023-01-08T23:50:43.451Z,92.20
2023-01-08T23:53:29.532Z,92.20
2023-01-08T23:56:15.349Z,92.10
2023-01-08T23:59:01.440Z,92.10
